48X weather

Public forecast

Using degrees Fahrenheit for public forecast. Weather courtesy of forecast.io.

Closest aviation weather report (METAR) to Airport Manatee Airport

Closest report is Albert Whitted Airport, 9.3 nm (17.2 km) NW. Retrieved 2020/08/09 12:53 UTC (55 minutes ago):

KSPG 091253Z 12005KT 10SM CLR 28/25 A3014 RMK AO2 SLP207 T02830250

Closest aviation forecast (TAF) to Airport Manatee Airport

Forecast is more than 12 hours old.

Closest forecast is Mac Dill Air Force Base, 12.4 nm (23.0 km) N. Retrieved 2020/08/08 09:24 UTC (1 day ago):

TAF TAF KMCF 080900Z 0809/0915 VRB06KT 9999 FEW030 SCT050 QNH3010INS BECMG 0814/0815 VRB06KT 9999 SCT030 QNH3017INS BECMG 0819/0820 VRB06KT 9999 FEW050 FEW100 QNH3012INS TEMPO 0820/0901 VRB06KT 9999 VCTS SCT050CB BECMG 0905/0906 10006KT 9999 SCT030 BKN050 QNH3014INS TX33/0821Z TN25/0810Z